sensor_id;sensor_type;location;lat;lon;timestamp;pressure;altitude;pressure_sealevel;temperature;humidity
35419;BME280;21525;41.240;16.500;2023-05-11T00:01:40;100793.22;;;23.72;99.63
35419;BME280;21525;41.240;16.500;2023-05-11T00:04:07;100794.03;;;23.33;100.00
35419;BME280;21525;41.240;16.500;2023-05-11T00:06:33;100786.72;;;24.03;99.48
35419;BME280;21525;41.240;16.500;2023-05-11T00:08:58;100789.31;;;24.30;95.83
35419;BME280;21525;41.240;16.500;2023-05-11T00:11:24;100793.28;;;23.97;97.55
35419;BME280;21525;41.240;16.500;2023-05-11T00:13:50;100791.03;;;23.91;95.78
35419;BME280;21525;41.240;16.500;2023-05-11T00:16:16;100787.66;;;24.02;97.10
35419;BME280;21525;41.240;16.500;2023-05-11T00:18:42;100778.75;;;24.03;97.69
35419;BME280;21525;41.240;16.500;2023-05-11T00:21:07;100780.00;;;23.97;95.98
35419;BME280;21525;41.240;16.500;2023-05-11T00:23:33;100778.22;;;24.23;94.81
35419;BME280;21525;41.240;16.500;2023-05-11T00:25:59;100780.28;;;24.32;93.29
35419;BME280;21525;41.240;16.500;2023-05-11T00:28:25;100775.50;;;23.85;97.11
35419;BME280;21525;41.240;16.500;2023-05-11T00:30:57;100778.06;;;23.87;95.97
35419;BME280;21525;41.240;16.500;2023-05-11T00:33:23;100776.03;;;24.30;91.72
35419;BME280;21525;41.240;16.500;2023-05-11T00:35:50;100774.97;;;24.32;91.25
35419;BME280;21525;41.240;16.500;2023-05-11T00:38:16;100775.75;;;24.07;92.38
35419;BME280;21525;41.240;16.500;2023-05-11T00:40:41;100768.75;;;23.94;93.04
35419;BME280;21525;41.240;16.500;2023-05-11T00:43:07;100769.50;;;23.56;94.74
35419;BME280;21525;41.240;16.500;2023-05-11T00:45:34;100776.41;;;23.98;91.29
35419;BME280;21525;41.240;16.500;2023-05-11T00:48:00;100765.16;;;24.45;87.27
35419;BME280;21525;41.240;16.500;2023-05-11T00:50:26;100764.34;;;24.32;85.19
35419;BME280;21525;41.240;16.500;2023-05-11T00:52:53;100774.59;;;23.99;87.52
35419;BME280;21525;41.240;16.500;2023-05-11T00:55:20;100768.63;;;24.08;86.95
35419;BME280;21525;41.240;16.500;2023-05-11T00:57:46;100771.19;;;23.97;86.18
35419;BME280;21525;41.240;16.500;2023-05-11T01:00:12;100775.13;;;24.17;84.31
35419;BME280;21525;41.240;16.500;2023-05-11T01:02:39;100779.41;;;24.44;81.40
35419;BME280;21525;41.240;16.500;2023-05-11T01:05:06;100772.09;;;24.35;79.53
35419;BME280;21525;41.240;16.500;2023-05-11T01:15:54;100772.94;;;24.36;76.04
35419;BME280;21525;41.240;16.500;2023-05-11T01:21:08;100766.03;;;24.33;75.10
35419;BME280;21525;41.240;16.500;2023-05-11T01:24:11;100766.94;;;24.07;74.62
35419;BME280;21525;41.240;16.500;2023-05-11T01:32:33;100773.16;;;23.81;74.35
35419;BME280;21525;41.240;16.500;2023-05-11T01:35:12;100763.00;;;24.00;73.46
35419;BME280;21525;41.240;16.500;2023-05-11T01:37:45;100770.44;;;23.95;73.37
35419;BME280;21525;41.240;16.500;2023-05-11T01:40:15;100765.28;;;23.66;75.77
35419;BME280;21525;41.240;16.500;2023-05-11T01:42:44;100758.13;;;23.54;76.74
35419;BME280;21525;41.240;16.500;2023-05-11T01:45:13;100760.94;;;23.65;75.98
35419;BME280;21525;41.240;16.500;2023-05-11T01:47:40;100762.19;;;23.45;77.47
35419;BME280;21525;41.240;16.500;2023-05-11T01:50:08;100760.13;;;23.09;78.77
35419;BME280;21525;41.240;16.500;2023-05-11T01:52:36;100756.28;;;23.69;76.83
35419;BME280;21525;41.240;16.500;2023-05-11T01:55:05;100755.50;;;23.13;79.03
35419;BME280;21525;41.240;16.500;2023-05-11T01:57:32;100744.06;;;23.52;78.12
35419;BME280;21525;41.240;16.500;2023-05-11T01:59:58;100754.13;;;23.61;76.80
35419;BME280;21525;41.240;16.500;2023-05-11T02:02:27;100757.03;;;23.71;77.72
35419;BME280;21525;41.240;16.500;2023-05-11T02:04:53;100744.66;;;23.57;77.18
35419;BME280;21525;41.240;16.500;2023-05-11T02:07:21;100741.78;;;23.60;77.93
35419;BME280;21525;41.240;16.500;2023-05-11T02:09:50;100742.34;;;23.78;77.38
35419;BME280;21525;41.240;16.500;2023-05-11T02:12:18;100737.63;;;23.56;78.24
35419;BME280;21525;41.240;16.500;2023-05-11T02:14:46;100733.06;;;23.31;80.90
35419;BME280;21525;41.240;16.500;2023-05-11T02:17:14;100736.22;;;23.51;78.54
35419;BME280;21525;41.240;16.500;2023-05-11T02:19:41;100736.81;;;23.15;80.59
35419;BME280;21525;41.240;16.500;2023-05-11T02:22:09;100738.75;;;23.52;79.33
35419;BME280;21525;41.240;16.500;2023-05-11T02:24:36;100734.09;;;23.95;77.42
35419;BME280;21525;41.240;16.500;2023-05-11T02:27:03;100736.50;;;23.73;77.10
35419;BME280;21525;41.240;16.500;2023-05-11T02:29:29;100739.41;;;23.95;75.61
35419;BME280;21525;41.240;16.500;2023-05-11T02:31:58;100731.44;;;23.95;74.95
35419;BME280;21525;41.240;16.500;2023-05-11T02:34:27;100735.06;;;23.94;75.74
35419;BME280;21525;41.240;16.500;2023-05-11T02:37:00;100731.06;;;23.62;75.76
35419;BME280;21525;41.240;16.500;2023-05-11T02:39:34;100732.38;;;23.82;75.64
35419;BME280;21525;41.240;16.500;2023-05-11T02:42:08;100728.06;;;23.54;75.34
35419;BME280;21525;41.240;16.500;2023-05-11T02:44:36;100734.53;;;24.02;74.57
35419;BME280;21525;41.240;16.500;2023-05-11T02:47:05;100734.78;;;23.72;74.56
35419;BME280;21525;41.240;16.500;2023-05-11T02:49:35;100735.53;;;23.74;75.51
35419;BME280;21525;41.240;16.500;2023-05-11T02:52:05;100734.69;;;23.73;74.82
35419;BME280;21525;41.240;16.500;2023-05-11T02:54:38;100728.25;;;24.16;73.25
35419;BME280;21525;41.240;16.500;2023-05-11T02:57:05;100723.91;;;24.02;72.53
35419;BME280;21525;41.240;16.500;2023-05-11T02:59:31;100720.75;;;23.57;75.14
35419;BME280;21525;41.240;16.500;2023-05-11T03:01:59;100730.22;;;23.74;73.81
35419;BME280;21525;41.240;16.500;2023-05-11T03:04:25;100728.97;;;23.67;74.67
35419;BME280;21525;41.240;16.500;2023-05-11T03:06:51;100728.66;;;23.18;76.12
35419;BME280;21525;41.240;16.500;2023-05-11T03:09:17;100726.41;;;23.65;74.80
35419;BME280;21525;41.240;16.500;2023-05-11T03:11:46;100729.06;;;23.38;75.86
35419;BME280;21525;41.240;16.500;2023-05-11T03:14:12;100725.31;;;23.55;76.20
35419;BME280;21525;41.240;16.500;2023-05-11T03:16:40;100721.78;;;23.94;72.92
35419;BME280;21525;41.240;16.500;2023-05-11T03:19:07;100725.16;;;23.84;73.32
35419;BME280;21525;41.240;16.500;2023-05-11T03:21:34;100725.69;;;23.89;73.50
35419;BME280;21525;41.240;16.500;2023-05-11T03:24:04;100722.38;;;23.85;73.35
35419;BME280;21525;41.240;16.500;2023-05-11T03:26:32;100727.69;;;23.85;73.21
35419;BME280;21525;41.240;16.500;2023-05-11T03:28:58;100730.38;;;23.85;72.80
35419;BME280;21525;41.240;16.500;2023-05-11T03:31:25;100728.34;;;23.89;73.30
35419;BME280;21525;41.240;16.500;2023-05-11T03:33:51;100734.19;;;23.94;73.74
35419;BME280;21525;41.240;16.500;2023-05-11T03:36:18;100726.44;;;23.51;75.78
35419;BME280;21525;41.240;16.500;2023-05-11T03:38:46;100731.72;;;23.11;78.17
35419;BME280;21525;41.240;16.500;2023-05-11T03:41:16;100726.22;;;24.06;72.94
35419;BME280;21525;41.240;16.500;2023-05-11T03:43:44;100730.38;;;24.10;73.62
35419;BME280;21525;41.240;16.500;2023-05-11T03:46:12;100733.25;;;23.95;72.42
35419;BME280;21525;41.240;16.500;2023-05-11T03:48:39;100732.59;;;23.91;72.67
35419;BME280;21525;41.240;16.500;2023-05-11T03:51:06;100734.94;;;23.70;73.48
35419;BME280;21525;41.240;16.500;2023-05-11T03:53:34;100730.28;;;23.99;72.14
35419;BME280;21525;41.240;16.500;2023-05-11T03:56:00;100737.72;;;23.94;71.93
35419;BME280;21525;41.240;16.500;2023-05-11T03:58:26;100733.44;;;23.92;71.29
35419;BME280;21525;41.240;16.500;2023-05-11T04:00:52;100738.97;;;23.89;70.78
35419;BME280;21525;41.240;16.500;2023-05-11T04:03:18;100730.03;;;23.77;72.31
35419;BME280;21525;41.240;16.500;2023-05-11T04:05:44;100725.59;;;24.16;70.28
35419;BME280;21525;41.240;16.500;2023-05-11T04:08:11;100740.78;;;23.88;70.74
35419;BME280;21525;41.240;16.500;2023-05-11T04:10:38;100738.25;;;23.99;69.39
35419;BME280;21525;41.240;16.500;2023-05-11T04:13:03;100738.13;;;23.88;69.36
35419;BME280;21525;41.240;16.500;2023-05-11T04:15:29;100741.69;;;23.62;69.92
35419;BME280;21525;41.240;16.500;2023-05-11T04:17:55;100741.13;;;23.96;68.56
35419;BME280;21525;41.240;16.500;2023-05-11T04:20:21;100739.78;;;23.37;71.35
35419;BME280;21525;41.240;16.500;2023-05-11T04:22:47;100739.38;;;23.70;69.18
35419;BME280;21525;41.240;16.500;2023-05-11T04:25:12;100745.25;;;24.13;67.81
35419;BME280;21525;41.240;16.500;2023-05-11T04:27:39;100750.94;;;24.34;66.80
35419;BME280;21525;41.240;16.500;2023-05-11T04:30:05;100749.72;;;24.00;66.67
35419;BME280;21525;41.240;16.500;2023-05-11T04:32:32;100755.84;;;23.75;67.67
35419;BME280;21525;41.240;16.500;2023-05-11T04:34:58;100758.66;;;24.50;65.62
35419;BME280;21525;41.240;16.500;2023-05-11T04:37:26;100759.13;;;24.31;65.03
35419;BME280;21525;41.240;16.500;2023-05-11T04:39:52;100761.31;;;24.37;65.30
35419;BME280;21525;41.240;16.500;2023-05-11T04:42:18;100763.09;;;24.74;63.92
35419;BME280;21525;41.240;16.500;2023-05-11T04:44:47;100766.94;;;24.70;63.98
35419;BME280;21525;41.240;16.500;2023-05-11T04:47:16;100758.38;;;24.91;62.93
35419;BME280;21525;41.240;16.500;2023-05-11T04:49:42;100768.34;;;25.13;62.68
35419;BME280;21525;41.240;16.500;2023-05-11T04:52:09;100768.19;;;25.27;61.87
35419;BME280;21525;41.240;16.500;2023-05-11T04:54:35;100771.59;;;25.53;59.79
35419;BME280;21525;41.240;16.500;2023-05-11T04:57:01;100772.63;;;25.63;58.74
35419;BME280;21525;41.240;16.500;2023-05-11T04:59:29;100778.16;;;25.60;59.22
35419;BME280;21525;41.240;16.500;2023-05-11T05:01:54;100765.81;;;26.40;57.68
35419;BME280;21525;41.240;16.500;2023-05-11T05:04:20;100768.84;;;27.46;54.63
35419;BME280;21525;41.240;16.500;2023-05-11T05:06:46;100772.63;;;27.75;52.24
35419;BME280;21525;41.240;16.500;2023-05-11T05:09:14;100765.19;;;28.71;50.45
35419;BME280;21525;41.240;16.500;2023-05-11T05:11:40;100766.34;;;29.38;47.96
35419;BME280;21525;41.240;16.500;2023-05-11T05:14:06;100770.78;;;30.81;45.43
35419;BME280;21525;41.240;16.500;2023-05-11T05:16:31;100764.25;;;31.73;43.52
35419;BME280;21525;41.240;16.500;2023-05-11T05:18:57;100767.28;;;32.48;43.09
35419;BME280;21525;41.240;16.500;2023-05-11T05:21:23;100767.47;;;31.77;42.13
35419;BME280;21525;41.240;16.500;2023-05-11T05:23:49;100767.53;;;31.50;42.48
35419;BME280;21525;41.240;16.500;2023-05-11T05:26:15;100770.91;;;31.16;42.89
35419;BME280;21525;41.240;16.500;2023-05-11T05:28:41;100776.97;;;31.18;43.22
35419;BME280;21525;41.240;16.500;2023-05-11T05:31:08;100775.50;;;31.42;42.95
35419;BME280;21525;41.240;16.500;2023-05-11T05:33:34;100780.25;;;31.12;42.48
35419;BME280;21525;41.240;16.500;2023-05-11T05:36:00;100775.72;;;31.66;42.92
35419;BME280;21525;41.240;16.500;2023-05-11T05:38:25;100772.19;;;31.12;43.44
35419;BME280;21525;41.240;16.500;2023-05-11T05:40:52;100772.44;;;31.09;44.38
35419;BME280;21525;41.240;16.500;2023-05-11T05:43:18;100777.78;;;30.91;44.83
35419;BME280;21525;41.240;16.500;2023-05-11T05:45:44;100778.63;;;31.19;44.26
35419;BME280;21525;41.240;16.500;2023-05-11T05:48:10;100782.09;;;30.37;45.10
35419;BME280;21525;41.240;16.500;2023-05-11T05:50:37;100782.88;;;29.72;46.36
35419;BME280;21525;41.240;16.500;2023-05-11T05:53:03;100784.56;;;29.83;46.44
35419;BME280;21525;41.240;16.500;2023-05-11T05:55:29;100783.38;;;29.18;48.09
35419;BME280;21525;41.240;16.500;2023-05-11T05:57:56;100787.16;;;29.05;49.00
35419;BME280;21525;41.240;16.500;2023-05-11T06:00:22;100791.38;;;29.08;48.94
35419;BME280;21525;41.240;16.500;2023-05-11T06:02:57;100796.84;;;28.87;49.26
35419;BME280;21525;41.240;16.500;2023-05-11T06:05:25;100801.16;;;28.27;50.10
35419;BME280;21525;41.240;16.500;2023-05-11T06:07:51;100788.16;;;28.43;50.56
35419;BME280;21525;41.240;16.500;2023-05-11T06:10:17;100794.53;;;28.52;50.90
35419;BME280;21525;41.240;16.500;2023-05-11T06:12:45;100786.13;;;28.57;51.21
35419;BME280;21525;41.240;16.500;2023-05-11T06:15:11;100791.34;;;28.17;50.19
35419;BME280;21525;41.240;16.500;2023-05-11T06:17:39;100795.13;;;28.14;50.42
35419;BME280;21525;41.240;16.500;2023-05-11T06:20:06;100791.84;;;28.22;51.28
35419;BME280;21525;41.240;16.500;2023-05-11T06:22:34;100791.94;;;28.20;50.51
35419;BME280;21525;41.240;16.500;2023-05-11T06:25:00;100793.03;;;27.97;50.27
35419;BME280;21525;41.240;16.500;2023-05-11T06:27:27;100800.09;;;28.39;48.82
35419;BME280;21525;41.240;16.500;2023-05-11T06:29:55;100798.34;;;28.29;48.05
35419;BME280;21525;41.240;16.500;2023-05-11T06:32:22;100795.69;;;28.59;47.63
35419;BME280;21525;41.240;16.500;2023-05-11T06:34:48;100795.97;;;28.56;48.14
35419;BME280;21525;41.240;16.500;2023-05-11T06:37:13;100795.59;;;29.01;47.38
35419;BME280;21525;41.240;16.500;2023-05-11T06:39:47;100793.66;;;29.13;46.79
35419;BME280;21525;41.240;16.500;2023-05-11T06:42:12;100792.03;;;29.69;44.81
35419;BME280;21525;41.240;16.500;2023-05-11T06:44:38;100792.47;;;29.84;44.96
35419;BME280;21525;41.240;16.500;2023-05-11T06:47:06;100801.94;;;29.79;44.41
35419;BME280;21525;41.240;16.500;2023-05-11T06:49:32;100802.75;;;29.60;45.19
35419;BME280;21525;41.240;16.500;2023-05-11T06:51:58;100794.28;;;29.93;45.06
35419;BME280;21525;41.240;16.500;2023-05-11T06:54:24;100796.84;;;30.14;44.59
35419;BME280;21525;41.240;16.500;2023-05-11T06:56:49;100803.13;;;30.42;43.80
35419;BME280;21525;41.240;16.500;2023-05-11T06:59:15;100806.06;;;30.58;43.22
35419;BME280;21525;41.240;16.500;2023-05-11T07:01:41;100805.78;;;30.52;43.00
35419;BME280;21525;41.240;16.500;2023-05-11T07:04:07;100809.34;;;30.42;43.16
35419;BME280;21525;41.240;16.500;2023-05-11T07:06:33;100807.16;;;30.93;43.29
35419;BME280;21525;41.240;16.500;2023-05-11T07:08:59;100806.09;;;30.86;43.35
35419;BME280;21525;41.240;16.500;2023-05-11T07:11:26;100809.72;;;30.94;42.22
35419;BME280;21525;41.240;16.500;2023-05-11T07:13:52;100815.59;;;30.80;42.38
35419;BME280;21525;41.240;16.500;2023-05-11T07:16:18;100809.38;;;30.80;41.69
35419;BME280;21525;41.240;16.500;2023-05-11T07:18:43;100807.50;;;30.43;42.98
35419;BME280;21525;41.240;16.500;2023-05-11T07:21:09;100811.59;;;31.12;42.53
35419;BME280;21525;41.240;16.500;2023-05-11T07:23:35;100813.59;;;31.10;42.14
35419;BME280;21525;41.240;16.500;2023-05-11T07:26:01;100820.34;;;30.39;42.47
35419;BME280;21525;41.240;16.500;2023-05-11T07:28:35;100810.56;;;31.22;41.41
35419;BME280;21525;41.240;16.500;2023-05-11T07:31:01;100819.09;;;30.34;43.12
35419;BME280;21525;41.240;16.500;2023-05-11T07:33:26;100824.50;;;30.15;43.49
35419;BME280;21525;41.240;16.500;2023-05-11T07:35:52;100818.88;;;29.89;44.11
35419;BME280;21525;41.240;16.500;2023-05-11T07:38:18;100825.50;;;29.06;45.86
35419;BME280;21525;41.240;16.500;2023-05-11T07:40:44;100818.28;;;29.95;45.19
35419;BME280;21525;41.240;16.500;2023-05-11T07:43:10;100829.31;;;30.21;43.81
35419;BME280;21525;41.240;16.500;2023-05-11T07:45:35;100820.25;;;30.22;43.47
35419;BME280;21525;41.240;16.500;2023-05-11T07:48:01;100824.63;;;29.65;43.56
35419;BME280;21525;41.240;16.500;2023-05-11T07:50:27;100832.41;;;29.78;43.89
35419;BME280;21525;41.240;16.500;2023-05-11T07:52:53;100825.63;;;29.54;43.81
35419;BME280;21525;41.240;16.500;2023-05-11T07:55:18;100827.72;;;29.41;43.75
35419;BME280;21525;41.240;16.500;2023-05-11T07:57:50;100834.84;;;29.31;45.10
35419;BME280;21525;41.240;16.500;2023-05-11T08:00:17;100832.34;;;30.45;44.40
35419;BME280;21525;41.240;16.500;2023-05-11T08:02:43;100832.09;;;30.29;44.00
35419;BME280;21525;41.240;16.500;2023-05-11T08:05:09;100831.81;;;29.64;46.16
35419;BME280;21525;41.240;16.500;2023-05-11T08:07:34;100837.44;;;30.38;45.18
35419;BME280;21525;41.240;16.500;2023-05-11T08:10:00;100842.53;;;29.45;45.13
35419;BME280;21525;41.240;16.500;2023-05-11T08:12:26;100844.84;;;30.07;44.55
35419;BME280;21525;41.240;16.500;2023-05-11T08:14:52;100850.91;;;28.81;46.24
35419;BME280;21525;41.240;16.500;2023-05-11T08:17:18;100846.97;;;29.25;45.75
35419;BME280;21525;41.240;16.500;2023-05-11T08:19:43;100846.88;;;30.52;44.63
35419;BME280;21525;41.240;16.500;2023-05-11T08:22:10;100852.19;;;29.27;46.05
35419;BME280;21525;41.240;16.500;2023-05-11T08:24:36;100849.66;;;30.04;44.83
35419;BME280;21525;41.240;16.500;2023-05-11T08:27:02;100849.50;;;31.08;42.88
35419;BME280;21525;41.240;16.500;2023-05-11T08:29:28;100850.53;;;28.95;45.86
35419;BME280;21525;41.240;16.500;2023-05-11T08:31:53;100849.34;;;29.19;45.08
35419;BME280;21525;41.240;16.500;2023-05-11T08:34:19;100854.38;;;29.02;46.60
35419;BME280;21525;41.240;16.500;2023-05-11T08:36:46;100853.38;;;29.44;46.16
35419;BME280;21525;41.240;16.500;2023-05-11T08:39:12;100854.84;;;29.86;43.89
35419;BME280;21525;41.240;16.500;2023-05-11T08:41:38;100858.53;;;28.65;46.19
35419;BME280;21525;41.240;16.500;2023-05-11T08:44:05;100858.81;;;29.32;45.30
35419;BME280;21525;41.240;16.500;2023-05-11T08:46:34;100862.41;;;27.66;47.23
35419;BME280;21525;41.240;16.500;2023-05-11T08:49:00;100859.03;;;28.80;45.92
35419;BME280;21525;41.240;16.500;2023-05-11T08:51:26;100861.00;;;27.51;48.37
35419;BME280;21525;41.240;16.500;2023-05-11T08:53:53;100868.66;;;27.33;50.84
35419;BME280;21525;41.240;16.500;2023-05-11T08:56:21;100863.94;;;26.24;52.35
35419;BME280;21525;41.240;16.500;2023-05-11T08:58:48;100860.88;;;27.53;50.43
35419;BME280;21525;41.240;16.500;2023-05-11T09:01:16;100866.72;;;28.22;48.13
35419;BME280;21525;41.240;16.500;2023-05-11T09:03:44;100862.03;;;29.26;45.56
35419;BME280;21525;41.240;16.500;2023-05-11T09:06:11;100859.75;;;28.51;46.09
35419;BME280;21525;41.240;16.500;2023-05-11T09:08:38;100853.13;;;29.47;45.51
35419;BME280;21525;41.240;16.500;2023-05-11T09:11:04;100849.63;;;29.85;44.82
35419;BME280;21525;41.240;16.500;2023-05-11T09:13:31;100849.59;;;29.06;46.02
35419;BME280;21525;41.240;16.500;2023-05-11T09:15:57;100852.72;;;28.81;46.21
35419;BME280;21525;41.240;16.500;2023-05-11T09:18:23;100850.78;;;28.83;47.06
35419;BME280;21525;41.240;16.500;2023-05-11T09:20:49;100853.97;;;27.93;48.93
35419;BME280;21525;41.240;16.500;2023-05-11T09:23:17;100854.63;;;27.74;54.29
35419;BME280;21525;41.240;16.500;2023-05-11T09:25:43;100860.25;;;27.49;54.01
35419;BME280;21525;41.240;16.500;2023-05-11T09:28:12;100864.09;;;27.24;55.67
35419;BME280;21525;41.240;16.500;2023-05-11T09:30:41;100859.84;;;27.22;54.99
35419;BME280;21525;41.240;16.500;2023-05-11T09:33:07;100856.00;;;26.46;55.70
35419;BME280;21525;41.240;16.500;2023-05-11T09:35:34;100846.91;;;26.37;56.13
35419;BME280;21525;41.240;16.500;2023-05-11T09:38:10;100858.72;;;26.80;54.88
35419;BME280;21525;41.240;16.500;2023-05-11T09:40:41;100856.41;;;26.64;53.97
35419;BME280;21525;41.240;16.500;2023-05-11T09:43:27;100859.88;;;27.54;52.96
35419;BME280;21525;41.240;16.500;2023-05-11T09:45:56;100857.22;;;26.31;55.83
35419;BME280;21525;41.240;16.500;2023-05-11T09:48:23;100845.44;;;28.20;52.66
35419;BME280;21525;41.240;16.500;2023-05-11T09:50:51;100850.50;;;28.02;51.80
35419;BME280;21525;41.240;16.500;2023-05-11T09:53:42;100846.91;;;27.92;52.53
35419;BME280;21525;41.240;16.500;2023-05-11T09:56:11;100844.50;;;27.89;50.92
35419;BME280;21525;41.240;16.500;2023-05-11T09:58:45;100854.38;;;27.12;50.79
35419;BME280;21525;41.240;16.500;2023-05-11T10:01:12;100851.09;;;26.29;54.06
35419;BME280;21525;41.240;16.500;2023-05-11T10:03:46;100856.69;;;27.17;53.53
35419;BME280;21525;41.240;16.500;2023-05-11T10:06:13;100844.16;;;27.83;51.85
35419;BME280;21525;41.240;16.500;2023-05-11T10:08:39;100842.94;;;28.07;50.50
35419;BME280;21525;41.240;16.500;2023-05-11T10:11:05;100837.47;;;28.09;51.12
35419;BME280;21525;41.240;16.500;2023-05-11T10:13:32;100849.25;;;26.75;53.36
35419;BME280;21525;41.240;16.500;2023-05-11T10:16:02;100845.69;;;26.30;53.93
35419;BME280;21525;41.240;16.500;2023-05-11T10:18:30;100838.78;;;26.39;55.66
35419;BME280;21525;41.240;16.500;2023-05-11T10:20:56;100840.16;;;26.21;56.55
35419;BME280;21525;41.240;16.500;2023-05-11T10:23:24;100843.56;;;26.23;56.82
35419;BME280;21525;41.240;16.500;2023-05-11T10:25:51;100838.06;;;26.48;55.52
35419;BME280;21525;41.240;16.500;2023-05-11T10:28:18;100841.75;;;27.14;53.72
35419;BME280;21525;41.240;16.500;2023-05-11T10:30:45;100845.41;;;27.02;53.67
35419;BME280;21525;41.240;16.500;2023-05-11T10:33:12;100845.09;;;28.14;51.60
35419;BME280;21525;41.240;16.500;2023-05-11T10:35:39;100841.47;;;26.50;57.40
35419;BME280;21525;41.240;16.500;2023-05-11T10:38:05;100844.59;;;27.56;54.43
35419;BME280;21525;41.240;16.500;2023-05-11T10:40:37;100847.38;;;27.54;55.70
35419;BME280;21525;41.240;16.500;2023-05-11T10:45:48;100827.69;;;27.12;54.66
35419;BME280;21525;41.240;16.500;2023-05-11T11:01:41;100828.56;;;27.44;53.96
35419;BME280;21525;41.240;16.500;2023-05-11T11:04:09;100828.69;;;27.54;52.07
35419;BME280;21525;41.240;16.500;2023-05-11T11:06:37;100835.66;;;26.78;51.66
35419;BME280;21525;41.240;16.500;2023-05-11T11:09:08;100817.28;;;27.84;50.47
35419;BME280;21525;41.240;16.500;2023-05-11T11:11:46;100816.63;;;26.83;51.02
35419;BME280;21525;41.240;16.500;2023-05-11T11:14:15;100826.81;;;26.09;51.49
35419;BME280;21525;41.240;16.500;2023-05-11T11:19:38;100812.56;;;27.44;49.51
35419;BME280;21525;41.240;16.500;2023-05-11T11:22:04;100828.03;;;26.17;53.03
35419;BME280;21525;41.240;16.500;2023-05-11T11:27:03;100823.38;;;27.86;48.86
35419;BME280;21525;41.240;16.500;2023-05-11T11:29:30;100815.81;;;28.33;46.89
35419;BME280;21525;41.240;16.500;2023-05-11T11:34:47;100818.75;;;27.45;48.90
35419;BME280;21525;41.240;16.500;2023-05-11T11:37:14;100814.94;;;28.23;47.72
35419;BME280;21525;41.240;16.500;2023-05-11T11:42:11;100811.66;;;27.66;48.95
35419;BME280;21525;41.240;16.500;2023-05-11T11:44:38;100815.09;;;27.89;51.64
35419;BME280;21525;41.240;16.500;2023-05-11T11:47:20;100813.03;;;27.50;52.82
35419;BME280;21525;41.240;16.500;2023-05-11T11:49:53;100813.81;;;27.72;51.28
35419;BME280;21525;41.240;16.500;2023-05-11T11:54:51;100821.50;;;27.55;50.63
35419;BME280;21525;41.240;16.500;2023-05-11T12:00:03;100815.38;;;28.28;49.66
35419;BME280;21525;41.240;16.500;2023-05-11T12:02:41;100810.19;;;28.57;47.16
35419;BME280;21525;41.240;16.500;2023-05-11T12:05:17;100812.28;;;28.12;47.23
35419;BME280;21525;41.240;16.500;2023-05-11T12:07:45;100806.56;;;28.16;47.29
35419;BME280;21525;41.240;16.500;2023-05-11T12:10:13;100807.03;;;28.21;46.16
35419;BME280;21525;41.240;16.500;2023-05-11T12:12:39;100806.31;;;28.40;46.34
35419;BME280;21525;41.240;16.500;2023-05-11T12:15:23;100803.88;;;27.20;48.30
35419;BME280;21525;41.240;16.500;2023-05-11T12:17:49;100810.72;;;27.88;47.69
35419;BME280;21525;41.240;16.500;2023-05-11T12:20:17;100810.44;;;27.16;49.27
35419;BME280;21525;41.240;16.500;2023-05-11T12:22:44;100814.34;;;27.55;48.46
35419;BME280;21525;41.240;16.500;2023-05-11T12:25:12;100813.13;;;28.12;46.69
35419;BME280;21525;41.240;16.500;2023-05-11T12:27:53;100820.13;;;27.28;48.94
35419;BME280;21525;41.240;16.500;2023-05-11T12:30:23;100825.56;;;27.81;47.65
35419;BME280;21525;41.240;16.500;2023-05-11T12:32:51;100828.72;;;28.07;48.03
35419;BME280;21525;41.240;16.500;2023-05-11T12:35:27;100835.06;;;28.27;48.40
35419;BME280;21525;41.240;16.500;2023-05-11T12:37:54;100827.72;;;28.91;49.08
35419;BME280;21525;41.240;16.500;2023-05-11T12:40:20;100845.56;;;27.55;48.34
35419;BME280;21525;41.240;16.500;2023-05-11T12:42:54;100832.63;;;27.82;47.16
35419;BME280;21525;41.240;16.500;2023-05-11T12:45:21;100839.75;;;28.14;46.02
35419;BME280;21525;41.240;16.500;2023-05-11T12:47:55;100828.44;;;29.03;44.47
35419;BME280;21525;41.240;16.500;2023-05-11T12:50:21;100831.34;;;28.18;46.01
35419;BME280;21525;41.240;16.500;2023-05-11T12:52:47;100833.00;;;27.77;47.44
35419;BME280;21525;41.240;16.500;2023-05-11T12:55:28;100823.28;;;27.97;47.90
35419;BME280;21525;41.240;16.500;2023-05-11T12:58:12;100817.41;;;28.66;47.54
35419;BME280;21525;41.240;16.500;2023-05-11T13:00:55;100826.78;;;28.30;48.48
35419;BME280;21525;41.240;16.500;2023-05-11T13:05:47;100828.47;;;28.31;50.43
35419;BME280;21525;41.240;16.500;2023-05-11T13:08:13;100837.41;;;28.92;49.63
35419;BME280;21525;41.240;16.500;2023-05-11T13:10:40;100839.44;;;28.28;49.97
35419;BME280;21525;41.240;16.500;2023-05-11T13:13:06;100847.03;;;27.36;51.84
35419;BME280;21525;41.240;16.500;2023-05-11T13:15:32;100833.38;;;26.74;53.64
35419;BME280;21525;41.240;16.500;2023-05-11T13:18:00;100820.72;;;27.32;51.96
35419;BME280;21525;41.240;16.500;2023-05-11T13:20:27;100819.13;;;27.40;51.07
35419;BME280;21525;41.240;16.500;2023-05-11T13:23:09;100830.44;;;26.66;51.50
35419;BME280;21525;41.240;16.500;2023-05-11T13:28:11;100833.25;;;26.75;50.99
35419;BME280;21525;41.240;16.500;2023-05-11T13:30:37;100826.25;;;27.51;49.51
35419;BME280;21525;41.240;16.500;2023-05-11T13:33:02;100821.47;;;27.98;48.28
35419;BME280;21525;41.240;16.500;2023-05-11T13:35:28;100813.72;;;28.16;47.83
35419;BME280;21525;41.240;16.500;2023-05-11T13:37:54;100816.88;;;27.14;51.05